createdAt,value
2022-09-01T00:01:39.361Z,3.58
2022-09-01T00:04:06.505Z,3.22
2022-09-01T00:06:34.530Z,3.47
2022-09-01T00:09:03.966Z,3.50
2022-09-01T00:11:31.357Z,3.58
2022-09-01T00:14:00.277Z,3.58
2022-09-01T00:16:27.918Z,3.80
2022-09-01T00:18:55.215Z,3.47
2022-09-01T00:21:25.306Z,3.63
2022-09-01T00:23:53.773Z,3.60
2022-09-01T00:26:20.760Z,3.45
2022-09-01T00:28:47.395Z,3.50
2022-09-01T00:31:14.550Z,3.30
2022-09-01T00:33:41.430Z,3.60
2022-09-01T00:36:08.454Z,3.58
2022-09-01T00:38:35.117Z,3.40
2022-09-01T00:41:03.959Z,3.50
2022-09-01T00:43:38.840Z,3.40
2022-09-01T00:46:07.669Z,3.85
2022-09-01T00:48:36.831Z,4.15
2022-09-01T00:51:06.147Z,3.45
2022-09-01T00:53:34.278Z,3.60
2022-09-01T00:56:03.451Z,3.83
2022-09-01T00:58:31.200Z,3.67
2022-09-01T01:00:57.962Z,3.65
2022-09-01T01:03:24.570Z,3.40
2022-09-01T01:05:55.972Z,3.38
2022-09-01T01:08:24.202Z,4.03
2022-09-01T01:10:50.901Z,3.25
2022-09-01T01:13:19.315Z,3.30
2022-09-01T01:15:45.886Z,3.65
2022-09-01T01:18:14.566Z,3.10
2022-09-01T01:20:43.754Z,3.85
2022-09-01T01:23:19.784Z,3.15
2022-09-01T01:25:50.841Z,3.13
2022-09-01T01:28:21.452Z,3.25
2022-09-01T01:30:55.748Z,3.13
2022-09-01T01:33:25.490Z,3.28
2022-09-01T01:35:53.717Z,3.03
2022-09-01T01:38:20.954Z,3.58
2022-09-01T01:40:52.242Z,3.60
2022-09-01T01:43:19.857Z,3.00
2022-09-01T01:45:46.540Z,3.15
2022-09-01T01:48:13.555Z,3.22
2022-09-01T01:50:40.460Z,2.85
2022-09-01T01:53:10.784Z,3.47
2022-09-01T01:55:37.949Z,3.43
2022-09-01T01:58:05.943Z,3.50
2022-09-01T02:00:32.875Z,3.00
2022-09-01T02:02:59.473Z,3.03
2022-09-01T02:05:28.661Z,3.08
2022-09-01T02:07:57.874Z,3.30
2022-09-01T02:10:28.232Z,3.00
2022-09-01T02:12:54.924Z,3.05
2022-09-01T02:15:22.851Z,2.90
2022-09-01T02:17:49.522Z,2.92
2022-09-01T02:20:16.253Z,3.10
2022-09-01T02:22:43.379Z,3.30
2022-09-01T02:25:10.246Z,2.97
2022-09-01T02:27:37.126Z,3.03
2022-09-01T02:30:04.856Z,3.20
2022-09-01T02:32:32.885Z,2.70
2022-09-01T02:34:59.505Z,3.10
2022-09-01T02:37:26.732Z,2.90
2022-09-01T02:39:53.360Z,2.83
2022-09-01T02:42:20.343Z,3.00
2022-09-01T02:44:46.901Z,2.80
2022-09-01T02:47:13.581Z,3.20
2022-09-01T02:49:41.605Z,2.83
2022-09-01T02:52:08.768Z,3.00
2022-09-01T02:54:35.354Z,2.85
2022-09-01T02:57:02.006Z,2.50
2022-09-01T02:59:29.566Z,2.45
2022-09-01T03:01:59.652Z,2.47
2022-09-01T03:04:26.579Z,2.63
2022-09-01T03:06:55.236Z,2.50
2022-09-01T03:09:22.916Z,2.90
2022-09-01T03:11:51.528Z,2.70
2022-09-01T03:14:18.996Z,3.05
2022-09-01T03:16:45.814Z,3.00
2022-09-01T03:19:13.278Z,2.65
2022-09-01T03:21:44.150Z,2.72
2022-09-01T03:24:16.390Z,2.72
2022-09-01T03:26:44.484Z,2.40
2022-09-01T03:29:11.780Z,2.38
2022-09-01T03:31:38.712Z,2.80
2022-09-01T03:34:06.599Z,2.80
2022-09-01T03:36:38.854Z,3.00
2022-09-01T03:39:06.178Z,2.60
2022-09-01T03:41:34.113Z,2.60
2022-09-01T03:44:00.804Z,2.90
2022-09-01T03:46:35.715Z,3.10
2022-09-01T03:49:03.744Z,2.63
2022-09-01T03:51:30.816Z,2.70
2022-09-01T03:54:00.076Z,2.63
2022-09-01T03:56:28.315Z,2.92
2022-09-01T03:58:59.613Z,2.83
2022-09-01T04:01:28.539Z,3.92
2022-09-01T04:03:56.353Z,2.60
2022-09-01T04:06:25.761Z,2.60
2022-09-01T04:08:53.373Z,2.95
2022-09-01T04:11:20.360Z,2.97
2022-09-01T04:13:49.021Z,3.25
2022-09-01T04:16:22.537Z,2.60
2022-09-01T04:18:49.461Z,3.03
2022-09-01T04:21:16.150Z,2.88
2022-09-01T04:23:42.941Z,2.80
2022-09-01T04:26:12.361Z,2.70
2022-09-01T04:28:41.001Z,3.28
2022-09-01T04:31:09.855Z,2.92
2022-09-01T04:33:40.109Z,2.83
2022-09-01T04:36:16.028Z,2.88
2022-09-01T04:38:43.463Z,2.75
2022-09-01T04:41:10.022Z,2.75
2022-09-01T04:43:36.643Z,3.20
2022-09-01T04:46:03.606Z,3.10
2022-09-01T04:48:30.271Z,2.67
2022-09-01T04:50:58.246Z,2.50
2022-09-01T04:53:28.558Z,2.70
2022-09-01T04:55:55.477Z,2.75
2022-09-01T04:58:24.311Z,2.85
2022-09-01T05:00:51.504Z,2.63
2022-09-01T05:03:19.218Z,2.40
2022-09-01T05:05:54.183Z,2.30
2022-09-01T05:08:23.379Z,2.58
2022-09-01T05:10:52.828Z,2.83
2022-09-01T05:13:30.197Z,2.28
2022-09-01T05:16:02.138Z,2.75
2022-09-01T05:18:29.339Z,2.80
2022-09-01T05:20:57.206Z,2.40
2022-09-01T05:23:26.081Z,2.58
2022-09-01T05:25:53.142Z,2.78
2022-09-01T05:28:20.768Z,3.15
2022-09-01T05:30:47.917Z,2.35
2022-09-01T05:33:19.903Z,2.50
2022-09-01T05:35:53.782Z,2.90
2022-09-01T05:38:20.682Z,2.67
2022-09-01T05:40:57.971Z,2.85
2022-09-01T05:43:24.898Z,3.20
2022-09-01T05:46:05.984Z,2.78
2022-09-01T05:48:35.314Z,2.67
2022-09-01T05:51:11.428Z,2.50
2022-09-01T05:53:50.413Z,2.53
2022-09-01T05:56:20.396Z,2.72
2022-09-01T06:01:34.646Z,3.00
2022-09-01T06:04:02.535Z,2.47
2022-09-01T06:06:48.959Z,2.25
2022-09-01T06:09:22.892Z,2.80
2022-09-01T06:11:53.781Z,2.33
2022-09-01T06:14:20.414Z,2.95
2022-09-01T06:16:48.690Z,2.25
2022-09-01T06:19:16.519Z,2.50
2022-09-01T06:21:46.637Z,2.63
2022-09-01T06:24:15.377Z,2.40
2022-09-01T06:26:42.172Z,3.20
2022-09-01T06:29:10.972Z,2.80
2022-09-01T06:31:44.352Z,2.70
2022-09-01T06:34:12.116Z,2.40
2022-09-01T06:36:39.494Z,2.40
2022-09-01T06:39:07.994Z,2.70
2022-09-01T06:41:35.948Z,2.50
2022-09-01T06:44:04.144Z,2.30
2022-09-01T06:46:32.238Z,2.28
2022-09-01T06:49:01.746Z,2.63
2022-09-01T06:51:28.350Z,2.35
2022-09-01T06:53:57.055Z,2.50
2022-09-01T06:56:30.972Z,2.60
2022-09-01T06:59:02.621Z,2.50
2022-09-01T07:01:29.641Z,2.15
2022-09-01T07:03:58.314Z,2.28
2022-09-01T07:09:48.043Z,1.98
2022-09-01T07:12:38.366Z,2.38
2022-09-01T07:17:54.294Z,1.98
2022-09-01T07:20:26.215Z,1.83
2022-09-01T07:23:03.943Z,2.22
2022-09-01T07:26:01.449Z,2.05
2022-09-01T07:28:36.163Z,1.63
2022-09-01T07:34:37.235Z,1.45
2022-09-01T07:46:00.752Z,1.00
2022-09-01T07:51:36.088Z,1.17
2022-09-01T07:54:06.326Z,1.00
2022-09-01T07:56:39.515Z,1.00
2022-09-01T07:59:07.468Z,1.10
2022-09-01T08:01:35.569Z,1.20
2022-09-01T08:04:03.577Z,1.10
2022-09-01T08:06:37.994Z,1.00
2022-09-01T08:09:06.774Z,1.30
2022-09-01T08:12:01.015Z,1.05
2022-09-01T08:14:26.020Z,1.13
2022-09-01T08:16:52.749Z,1.10
2022-09-01T08:19:20.042Z,1.30
2022-09-01T08:22:04.094Z,1.02
2022-09-01T08:24:54.679Z,1.20
2022-09-01T08:27:22.503Z,1.10
2022-09-01T08:29:49.197Z,1.00
2022-09-01T08:32:15.915Z,1.00
2022-09-01T08:34:42.736Z,1.20
2022-09-01T08:37:09.420Z,1.13
2022-09-01T08:39:39.082Z,1.30
2022-09-01T08:42:15.419Z,1.15
2022-09-01T08:44:54.369Z,1.20
2022-09-01T08:47:35.443Z,1.10
2022-09-01T08:50:08.736Z,1.08
2022-09-01T08:53:11.012Z,1.30
2022-09-01T08:58:15.331Z,1.10
2022-09-01T09:01:08.400Z,1.02
2022-09-01T09:03:42.756Z,1.17
2022-09-01T09:06:15.245Z,1.08
2022-09-01T09:08:52.914Z,1.20
2022-09-01T09:11:35.816Z,1.20
2022-09-01T09:14:10.865Z,1.42
2022-09-01T09:16:40.361Z,1.20
2022-09-01T09:19:10.466Z,1.17
2022-09-01T09:21:41.240Z,1.40
2022-09-01T09:24:16.586Z,1.45
2022-09-01T09:26:49.140Z,1.30
2022-09-01T09:29:17.241Z,1.08
2022-09-01T09:31:45.936Z,1.27
2022-09-01T09:34:31.976Z,1.48
2022-09-01T09:37:01.957Z,1.13
2022-09-01T09:39:29.507Z,1.33
2022-09-01T09:42:06.946Z,1.33
2022-09-01T09:44:42.744Z,1.40
2022-09-01T09:47:27.253Z,1.20
2022-09-01T09:50:10.186Z,1.30
2022-09-01T09:52:37.998Z,1.30
2022-09-01T09:55:07.097Z,1.60
2022-09-01T09:57:39.778Z,1.30
2022-09-01T10:00:20.689Z,1.10
2022-09-01T10:02:56.862Z,1.30
2022-09-01T10:05:38.295Z,1.42
2022-09-01T10:08:06.885Z,1.40
2022-09-01T10:10:38.811Z,1.60
2022-09-01T10:13:08.994Z,1.50
2022-09-01T10:15:38.358Z,1.33
2022-09-01T10:18:28.965Z,1.70
2022-09-01T10:20:58.655Z,1.30
2022-09-01T10:23:27.248Z,1.50
2022-09-01T10:26:06.037Z,1.33
2022-09-01T10:28:38.411Z,1.10
2022-09-01T10:31:09.140Z,1.30
2022-09-01T10:33:37.028Z,1.40
2022-09-01T10:36:07.831Z,1.70
2022-09-01T10:38:35.103Z,1.42
2022-09-01T10:41:01.867Z,1.60
2022-09-01T10:43:40.321Z,1.60
2022-09-01T10:46:41.909Z,1.50
2022-09-01T10:49:25.222Z,1.40
2022-09-01T10:51:57.055Z,1.75
2022-09-01T10:54:55.765Z,1.42
2022-09-01T10:57:48.681Z,1.60
2022-09-01T11:01:15.584Z,1.50
2022-09-01T11:03:57.105Z,1.70
2022-09-01T11:07:11.529Z,1.63
2022-09-01T11:09:34.729Z,1.70
2022-09-01T11:12:17.656Z,1.90
2022-09-01T11:14:58.279Z,1.67
2022-09-01T11:17:27.744Z,1.75
2022-09-01T11:19:59.085Z,1.77
2022-09-01T11:25:38.366Z,1.77
2022-09-01T11:28:35.765Z,1.75
2022-09-01T11:31:34.657Z,1.95
2022-09-01T11:34:10.545Z,1.65
2022-09-01T11:36:51.426Z,1.90
2022-09-01T11:42:03.584Z,1.77
2022-09-01T11:44:38.753Z,1.80
2022-09-01T11:47:12.106Z,1.70
2022-09-01T11:49:48.521Z,1.60
2022-09-01T11:52:18.608Z,2.00
2022-09-01T11:54:45.941Z,2.00
2022-09-01T11:57:22.049Z,2.05
2022-09-01T11:59:48.929Z,1.92
2022-09-01T12:02:20.503Z,2.13
2022-09-01T12:04:47.505Z,1.80
2022-09-01T12:07:27.137Z,1.77
2022-09-01T12:09:54.030Z,1.80
2022-09-01T12:12:33.392Z,2.03
2022-09-01T12:15:06.118Z,1.73
2022-09-01T12:17:34.231Z,1.73
2022-09-01T12:20:33.239Z,2.20
2022-09-01T12:23:01.683Z,1.90
2022-09-01T12:25:30.994Z,2.10
2022-09-01T12:28:00.046Z,1.80
2022-09-01T12:30:26.961Z,2.05
2022-09-01T12:33:22.845Z,1.92
2022-09-01T12:35:41.496Z,2.05
2022-09-01T12:38:25.521Z,1.98
2022-09-01T12:40:53.862Z,2.33
2022-09-01T12:43:35.210Z,1.88
2022-09-01T12:46:02.922Z,1.95
2022-09-01T12:48:33.800Z,2.05
2022-09-01T12:51:02.538Z,1.95
2022-09-01T12:53:36.577Z,1.95
2022-09-01T12:56:26.719Z,2.10
2022-09-01T12:59:07.762Z,2.10
2022-09-01T13:01:42.213Z,2.13
2022-09-01T13:04:15.282Z,2.28
2022-09-01T13:06:42.064Z,2.65
2022-09-01T13:09:10.380Z,2.28
2022-09-01T13:14:23.803Z,2.00
2022-09-01T13:16:51.194Z,2.17
2022-09-01T13:19:26.510Z,2.10
2022-09-01T13:21:54.296Z,2.13
2022-09-01T13:24:26.406Z,1.92
2022-09-01T13:29:41.915Z,1.83
2022-09-01T13:32:24.356Z,1.73
2022-09-01T13:34:53.181Z,1.77
2022-09-01T13:37:20.860Z,2.22
2022-09-01T13:39:49.167Z,2.00
2022-09-01T13:42:16.444Z,1.80
2022-09-01T13:44:44.131Z,1.85
2022-09-01T13:50:07.531Z,1.92
2022-09-01T13:52:35.174Z,1.88
2022-09-01T13:55:03.636Z,1.88
2022-09-01T13:57:31.593Z,1.92
2022-09-01T14:00:05.306Z,1.90
2022-09-01T14:02:36.986Z,2.15
2022-09-01T14:05:04.147Z,1.90
2022-09-01T14:07:30.849Z,1.90
2022-09-01T14:09:57.454Z,1.85
2022-09-01T14:12:25.474Z,1.70
2022-09-01T14:17:38.977Z,1.70
2022-09-01T14:20:08.455Z,2.03
2022-09-01T14:22:38.452Z,1.77
2022-09-01T14:25:06.169Z,1.83
2022-09-01T14:27:34.460Z,1.70
2022-09-01T14:30:01.069Z,1.73
2022-09-01T14:32:27.740Z,1.60
2022-09-01T14:34:55.379Z,1.60
2022-09-01T14:37:22.593Z,1.40
2022-09-01T14:39:50.130Z,1.85
2022-09-01T14:42:17.219Z,1.50
2022-09-01T14:44:48.705Z,1.45
2022-09-01T14:47:19.390Z,1.88
2022-09-01T14:49:47.713Z,1.35
2022-09-01T14:52:14.566Z,1.85
2022-09-01T14:54:42.239Z,1.48
2022-09-01T14:59:58.246Z,1.80
2022-09-01T15:02:25.536Z,1.25
2022-09-01T15:04:52.547Z,1.80
2022-09-01T15:07:19.486Z,1.60
2022-09-01T15:09:46.383Z,1.60
2022-09-01T15:12:13.326Z,1.45
2022-09-01T15:14:40.288Z,1.50
2022-09-01T15:17:08.353Z,1.60
2022-09-01T15:19:34.976Z,1.20
2022-09-01T15:22:02.508Z,1.48
2022-09-01T15:24:29.199Z,1.40
2022-09-01T15:26:55.854Z,1.60
2022-09-01T15:29:22.719Z,1.30
2022-09-01T15:31:49.535Z,1.30
2022-09-01T15:34:17.706Z,1.30
2022-09-01T15:36:44.635Z,1.70
2022-09-01T15:39:11.854Z,1.50
2022-09-01T15:41:38.662Z,1.40
2022-09-01T15:44:07.374Z,1.45
2022-09-01T15:46:34.575Z,1.35
2022-09-01T15:49:03.434Z,1.33
2022-09-01T15:51:34.227Z,1.30
2022-09-01T15:56:29.631Z,1.10
2022-09-01T15:59:03.377Z,1.00
2022-09-01T16:01:32.414Z,1.20
2022-09-01T16:03:59.947Z,1.15
2022-09-01T16:06:27.414Z,1.17
2022-09-01T16:08:55.688Z,1.20
2022-09-01T16:11:23.693Z,1.10
2022-09-01T16:13:52.449Z,1.10
2022-09-01T16:16:41.359Z,1.30
2022-09-01T16:19:20.243Z,1.30
2022-09-01T16:21:54.333Z,1.13
2022-09-01T16:24:22.563Z,1.25
2022-09-01T16:26:49.682Z,1.10
2022-09-01T16:29:26.071Z,1.02
2022-09-01T16:31:56.127Z,1.20
2022-09-01T16:34:27.720Z,1.00
2022-09-01T16:37:04.489Z,1.00
2022-09-01T16:39:43.636Z,1.02
2022-09-01T16:42:21.025Z,1.00
2022-09-01T16:44:57.471Z,0.90
2022-09-01T16:47:36.334Z,1.00
2022-09-01T16:50:13.031Z,0.88
2022-09-01T16:52:56.053Z,0.80
2022-09-01T16:55:32.222Z,1.42
2022-09-01T16:58:09.186Z,0.82
2022-09-01T17:00:46.584Z,0.90
2022-09-01T17:03:18.052Z,0.82
2022-09-01T17:05:54.364Z,0.98
2022-09-01T17:08:24.530Z,0.88
2022-09-01T17:10:57.926Z,1.05
2022-09-01T17:13:33.220Z,1.10
2022-09-01T17:16:04.109Z,1.00
2022-09-01T17:21:06.891Z,1.02
2022-09-01T17:23:38.400Z,1.10
2022-09-01T17:26:15.990Z,1.15
2022-09-01T17:28:47.830Z,1.20
2022-09-01T17:31:23.070Z,1.30
2022-09-01T17:34:00.944Z,1.50
2022-09-01T17:36:39.808Z,1.33
2022-09-01T17:39:22.173Z,1.20
2022-09-01T17:41:58.572Z,1.10
2022-09-01T17:44:32.514Z,1.17
2022-09-01T17:47:10.085Z,1.38
2022-09-01T17:49:44.110Z,1.05
2022-09-01T17:52:17.941Z,1.15
2022-09-01T17:54:54.429Z,1.10
2022-09-01T17:57:30.184Z,1.30
2022-09-01T18:00:02.099Z,1.30
2022-09-01T18:03:13.131Z,1.08
2022-09-01T18:05:42.562Z,1.20
2022-09-01T18:08:26.922Z,1.40
2022-09-01T18:10:58.809Z,1.30
2022-09-01T18:13:52.512Z,1.20
2022-09-01T18:16:23.381Z,1.30
2022-09-01T18:18:51.868Z,1.42
2022-09-01T18:21:20.195Z,1.23
2022-09-01T18:23:50.499Z,1.52
2022-09-01T18:26:23.246Z,1.58
2022-09-01T18:28:53.099Z,1.40
2022-09-01T18:31:41.843Z,1.40
2022-09-01T18:34:14.917Z,1.70
2022-09-01T18:36:49.472Z,1.50
2022-09-01T18:39:25.380Z,1.30
2022-09-01T18:42:04.615Z,2.47
2022-09-01T18:44:50.578Z,4.55
2022-09-01T18:47:31.713Z,1.65
2022-09-01T18:50:06.390Z,1.40
2022-09-01T18:52:50.924Z,1.67
2022-09-01T18:55:23.652Z,1.65
2022-09-01T18:57:53.490Z,1.67
2022-09-01T19:00:26.298Z,1.58
2022-09-01T19:03:13.622Z,1.70
2022-09-01T19:06:01.186Z,1.73
2022-09-01T19:08:43.403Z,1.63
2022-09-01T19:11:16.621Z,1.60
2022-09-01T19:13:53.341Z,1.73
2022-09-01T19:16:37.518Z,1.60
2022-09-01T19:19:18.321Z,1.80
2022-09-01T19:21:48.094Z,1.75
2022-09-01T19:24:25.077Z,1.75
2022-09-01T19:26:56.642Z,1.70
2022-09-01T19:31:57.119Z,1.50
2022-09-01T19:34:28.086Z,1.85
2022-09-01T19:36:57.077Z,1.42
2022-09-01T19:39:26.362Z,1.70
2022-09-01T19:41:59.649Z,1.50
2022-09-01T19:44:40.182Z,1.75
2022-09-01T19:47:13.134Z,1.70
2022-09-01T19:49:44.602Z,1.70
2022-09-01T19:52:23.599Z,1.60
2022-09-01T19:54:55.626Z,1.98
2022-09-01T19:57:32.381Z,1.60
2022-09-01T20:00:06.002Z,1.95
2022-09-01T20:02:38.221Z,1.85
2022-09-01T20:05:16.912Z,1.80
2022-09-01T20:07:51.408Z,1.95
2022-09-01T20:10:27.241Z,1.92
2022-09-01T20:13:05.878Z,1.98
2022-09-01T20:15:40.111Z,1.98
2022-09-01T20:18:19.925Z,1.60
2022-09-01T20:20:48.422Z,1.70
2022-09-01T20:23:23.853Z,1.60
2022-09-01T20:25:55.086Z,1.88
2022-09-01T20:28:30.914Z,1.75
2022-09-01T20:31:03.247Z,1.77
2022-09-01T20:33:37.236Z,1.80
2022-09-01T20:36:09.325Z,1.90
2022-09-01T20:38:44.927Z,2.35
2022-09-01T20:41:18.106Z,1.80
2022-09-01T20:43:47.924Z,2.00
2022-09-01T20:46:17.800Z,1.83
2022-09-01T20:48:46.082Z,1.80
2022-09-01T20:51:18.048Z,1.85
2022-09-01T20:54:00.765Z,1.80
2022-09-01T20:56:39.362Z,1.70
2022-09-01T20:59:12.674Z,1.80
2022-09-01T21:01:47.164Z,1.63
2022-09-01T21:04:31.107Z,1.60
2022-09-01T21:07:03.512Z,1.27
2022-09-01T21:09:39.501Z,1.50
2022-09-01T21:12:08.732Z,1.30
2022-09-01T21:14:47.549Z,1.50
2022-09-01T21:17:23.389Z,1.50
2022-09-01T21:19:59.430Z,1.40
2022-09-01T21:22:27.832Z,1.30
2022-09-01T21:24:54.487Z,1.40
2022-09-01T21:27:24.252Z,1.73
2022-09-01T21:29:56.440Z,1.30
2022-09-01T21:32:23.093Z,1.50
2022-09-01T21:34:50.281Z,1.30
2022-09-01T21:37:18.723Z,1.40
2022-09-01T21:39:45.253Z,1.45
2022-09-01T21:42:13.382Z,1.40
2022-09-01T21:44:41.024Z,1.20
2022-09-01T21:47:07.669Z,1.73
2022-09-01T21:49:34.233Z,1.40
2022-09-01T21:52:00.822Z,1.83
2022-09-01T21:54:28.728Z,1.38
2022-09-01T21:56:55.429Z,1.45
2022-09-01T21:59:22.287Z,1.27
2022-09-01T22:01:49.035Z,1.30
2022-09-01T22:04:17.747Z,1.45
2022-09-01T22:06:45.769Z,1.20
2022-09-01T22:09:20.499Z,1.20
2022-09-01T22:11:51.018Z,1.25
2022-09-01T22:14:18.297Z,1.30
2022-09-01T22:16:44.971Z,1.10
2022-09-01T22:19:11.567Z,1.17
2022-09-01T22:21:40.282Z,1.20
2022-09-01T22:24:07.912Z,1.17
2022-09-01T22:26:35.345Z,1.13
2022-09-01T22:29:05.838Z,1.25
2022-09-01T22:31:34.879Z,1.20
2022-09-01T22:34:01.487Z,1.05
2022-09-01T22:36:30.288Z,1.23
2022-09-01T22:38:57.571Z,1.60
2022-09-01T22:41:25.653Z,1.10
2022-09-01T22:43:52.702Z,0.93
2022-09-01T22:46:21.127Z,1.10
2022-09-01T22:48:48.696Z,1.10
2022-09-01T22:51:15.362Z,1.30
2022-09-01T22:53:43.416Z,1.10
2022-09-01T22:56:11.854Z,1.02
2022-09-01T22:58:38.476Z,1.08
2022-09-01T23:01:10.466Z,1.15
2022-09-01T23:03:38.812Z,1.10
2022-09-01T23:06:07.568Z,1.17
2022-09-01T23:08:34.591Z,1.17
2022-09-01T23:11:01.419Z,1.30
2022-09-01T23:13:28.059Z,1.00
2022-09-01T23:15:55.178Z,1.10
2022-09-01T23:18:22.199Z,1.10
2022-09-01T23:20:50.159Z,1.00
2022-09-01T23:23:17.224Z,1.20
2022-09-01T23:25:44.086Z,1.10
2022-09-01T23:28:11.135Z,1.10
2022-09-01T23:30:40.494Z,1.10
2022-09-01T23:33:07.213Z,1.65
2022-09-01T23:35:33.985Z,1.20
2022-09-01T23:38:02.038Z,1.50
2022-09-01T23:40:28.688Z,1.10
2022-09-01T23:42:55.326Z,1.30
2022-09-01T23:45:21.933Z,1.40
2022-09-01T23:47:48.571Z,1.20
2022-09-01T23:50:15.108Z,1.00
2022-09-01T23:52:41.775Z,1.20
2022-09-01T23:55:10.105Z,1.38
2022-09-01T23:57:36.706Z,1.30
